sensor_id;sensor_type;location;lat;lon;timestamp;temperature;humidity
11047;DHT22;5576;50.008;10.596;2024-03-25T00:02:09;6.60;99.90
11047;DHT22;5576;50.008;10.596;2024-03-25T00:04:35;6.60;99.90
11047;DHT22;5576;50.008;10.596;2024-03-25T00:07:01;6.60;99.90
11047;DHT22;5576;50.008;10.596;2024-03-25T00:09:27;3.20;99.90
11047;DHT22;5576;50.008;10.596;2024-03-25T00:11:53;6.70;99.90
11047;DHT22;5576;50.008;10.596;2024-03-25T00:14:20;6.60;99.90
11047;DHT22;5576;50.008;10.596;2024-03-25T00:16:46;6.70;99.90
11047;DHT22;5576;50.008;10.596;2024-03-25T00:19:12;6.60;99.90
11047;DHT22;5576;50.008;10.596;2024-03-25T00:21:38;6.70;99.90
11047;DHT22;5576;50.008;10.596;2024-03-25T00:24:04;6.60;99.90
11047;DHT22;5576;50.008;10.596;2024-03-25T00:26:30;6.60;99.90
11047;DHT22;5576;50.008;10.596;2024-03-25T00:28:55;6.70;99.90
11047;DHT22;5576;50.008;10.596;2024-03-25T00:31:21;6.60;99.90
11047;DHT22;5576;50.008;10.596;2024-03-25T00:33:47;6.70;99.90
11047;DHT22;5576;50.008;10.596;2024-03-25T00:36:13;6.60;99.90
11047;DHT22;5576;50.008;10.596;2024-03-25T00:38:38;6.60;99.90
11047;DHT22;5576;50.008;10.596;2024-03-25T00:41:05;6.60;99.90
11047;DHT22;5576;50.008;10.596;2024-03-25T00:43:30;6.60;99.90
11047;DHT22;5576;50.008;10.596;2024-03-25T00:45:56;6.70;99.90
11047;DHT22;5576;50.008;10.596;2024-03-25T00:48:22;6.70;99.90
11047;DHT22;5576;50.008;10.596;2024-03-25T00:50:48;6.60;99.90
11047;DHT22;5576;50.008;10.596;2024-03-25T00:53:14;6.60;99.90
11047;DHT22;5576;50.008;10.596;2024-03-25T00:55:40;6.50;99.90
11047;DHT22;5576;50.008;10.596;2024-03-25T00:58:06;6.60;99.90
11047;DHT22;5576;50.008;10.596;2024-03-25T01:00:32;6.50;99.90
11047;DHT22;5576;50.008;10.596;2024-03-25T01:02:58;6.60;99.90
11047;DHT22;5576;50.008;10.596;2024-03-25T01:05:24;6.60;99.90
11047;DHT22;5576;50.008;10.596;2024-03-25T01:07:49;6.60;99.90
11047;DHT22;5576;50.008;10.596;2024-03-25T01:10:16;6.60;99.90
11047;DHT22;5576;50.008;10.596;2024-03-25T01:12:42;6.60;99.90
11047;DHT22;5576;50.008;10.596;2024-03-25T01:15:08;6.50;99.90
11047;DHT22;5576;50.008;10.596;2024-03-25T01:17:36;6.50;99.90
11047;DHT22;5576;50.008;10.596;2024-03-25T01:20:02;6.60;99.90
11047;DHT22;5576;50.008;10.596;2024-03-25T01:22:30;6.50;99.90
11047;DHT22;5576;50.008;10.596;2024-03-25T01:24:57;6.40;99.90
11047;DHT22;5576;50.008;10.596;2024-03-25T01:27:22;6.60;99.90
11047;DHT22;5576;50.008;10.596;2024-03-25T01:29:48;6.60;99.90
11047;DHT22;5576;50.008;10.596;2024-03-25T01:32:14;6.60;99.90
11047;DHT22;5576;50.008;10.596;2024-03-25T01:34:40;6.50;99.90
11047;DHT22;5576;50.008;10.596;2024-03-25T01:39:32;6.70;99.90
11047;DHT22;5576;50.008;10.596;2024-03-25T01:41:57;6.70;99.90
11047;DHT22;5576;50.008;10.596;2024-03-25T01:44:23;6.60;99.90
11047;DHT22;5576;50.008;10.596;2024-03-25T01:46:50;6.60;99.90
11047;DHT22;5576;50.008;10.596;2024-03-25T01:49:18;4.30;99.90
11047;DHT22;5576;50.008;10.596;2024-03-25T01:51:44;6.60;99.90
11047;DHT22;5576;50.008;10.596;2024-03-25T01:54:10;6.60;99.90
11047;DHT22;5576;50.008;10.596;2024-03-25T01:56:40;6.70;99.90
11047;DHT22;5576;50.008;10.596;2024-03-25T01:59:07;6.60;99.90
11047;DHT22;5576;50.008;10.596;2024-03-25T02:01:33;6.60;99.90
11047;DHT22;5576;50.008;10.596;2024-03-25T02:03:59;6.50;99.90
11047;DHT22;5576;50.008;10.596;2024-03-25T02:06:27;6.50;99.90
11047;DHT22;5576;50.008;10.596;2024-03-25T02:08:55;6.50;99.90
11047;DHT22;5576;50.008;10.596;2024-03-25T02:11:22;6.50;99.90
11047;DHT22;5576;50.008;10.596;2024-03-25T02:13:49;6.50;99.90
11047;DHT22;5576;50.008;10.596;2024-03-25T02:16:15;6.60;99.90
11047;DHT22;5576;50.008;10.596;2024-03-25T02:18:41;6.60;99.90
11047;DHT22;5576;50.008;10.596;2024-03-25T02:21:07;6.50;99.90
11047;DHT22;5576;50.008;10.596;2024-03-25T02:23:33;6.50;99.90
11047;DHT22;5576;50.008;10.596;2024-03-25T02:26:00;6.50;99.90
11047;DHT22;5576;50.008;10.596;2024-03-25T02:28:25;6.60;99.90
11047;DHT22;5576;50.008;10.596;2024-03-25T02:30:51;6.70;99.90
11047;DHT22;5576;50.008;10.596;2024-03-25T02:33:17;6.60;99.90
11047;DHT22;5576;50.008;10.596;2024-03-25T02:38:09;6.40;99.90
11047;DHT22;5576;50.008;10.596;2024-03-25T02:40:36;6.40;99.90
11047;DHT22;5576;50.008;10.596;2024-03-25T02:43:03;6.40;99.90
11047;DHT22;5576;50.008;10.596;2024-03-25T02:45:29;6.40;99.90
11047;DHT22;5576;50.008;10.596;2024-03-25T02:47:55;6.40;99.90
11047;DHT22;5576;50.008;10.596;2024-03-25T02:50:21;6.40;99.90
11047;DHT22;5576;50.008;10.596;2024-03-25T02:52:46;6.40;99.90
11047;DHT22;5576;50.008;10.596;2024-03-25T02:55:12;6.40;99.90
11047;DHT22;5576;50.008;10.596;2024-03-25T02:57:38;6.40;99.90
11047;DHT22;5576;50.008;10.596;2024-03-25T03:00:04;6.50;99.90
11047;DHT22;5576;50.008;10.596;2024-03-25T03:02:30;6.50;99.90
11047;DHT22;5576;50.008;10.596;2024-03-25T03:04:56;6.30;99.90
11047;DHT22;5576;50.008;10.596;2024-03-25T03:07:21;6.30;99.90
11047;DHT22;5576;50.008;10.596;2024-03-25T03:09:47;6.40;99.90
11047;DHT22;5576;50.008;10.596;2024-03-25T03:12:13;6.30;99.90
11047;DHT22;5576;50.008;10.596;2024-03-25T03:14:38;2.80;99.90
11047;DHT22;5576;50.008;10.596;2024-03-25T03:17:04;6.30;99.90
11047;DHT22;5576;50.008;10.596;2024-03-25T03:19:31;6.20;99.90
11047;DHT22;5576;50.008;10.596;2024-03-25T03:21:57;4.30;99.90
11047;DHT22;5576;50.008;10.596;2024-03-25T03:24:23;6.30;99.90
11047;DHT22;5576;50.008;10.596;2024-03-25T03:26:49;6.30;99.90
11047;DHT22;5576;50.008;10.596;2024-03-25T03:29:15;6.40;99.90
11047;DHT22;5576;50.008;10.596;2024-03-25T03:31:41;6.30;99.90
11047;DHT22;5576;50.008;10.596;2024-03-25T03:34:07;6.40;99.90
11047;DHT22;5576;50.008;10.596;2024-03-25T03:36:32;6.30;99.90
11047;DHT22;5576;50.008;10.596;2024-03-25T03:38:58;6.40;99.90
11047;DHT22;5576;50.008;10.596;2024-03-25T03:41:24;6.20;99.90
11047;DHT22;5576;50.008;10.596;2024-03-25T03:43:49;6.20;99.90
11047;DHT22;5576;50.008;10.596;2024-03-25T03:46:15;6.20;99.90
11047;DHT22;5576;50.008;10.596;2024-03-25T03:48:41;6.30;99.90
11047;DHT22;5576;50.008;10.596;2024-03-25T03:51:07;1.90;99.90
11047;DHT22;5576;50.008;10.596;2024-03-25T03:53:33;6.20;99.90
11047;DHT22;5576;50.008;10.596;2024-03-25T03:56:02;6.10;99.90
11047;DHT22;5576;50.008;10.596;2024-03-25T04:03:24;6.10;99.90
11047;DHT22;5576;50.008;10.596;2024-03-25T04:05:50;6.20;99.90
11047;DHT22;5576;50.008;10.596;2024-03-25T04:08:16;6.10;99.90
11047;DHT22;5576;50.008;10.596;2024-03-25T04:10:43;6.30;99.90
11047;DHT22;5576;50.008;10.596;2024-03-25T04:13:09;6.30;99.90
11047;DHT22;5576;50.008;10.596;2024-03-25T04:15:35;6.10;99.90
11047;DHT22;5576;50.008;10.596;2024-03-25T04:18:02;5.90;99.90
11047;DHT22;5576;50.008;10.596;2024-03-25T04:20:28;6.00;99.90
11047;DHT22;5576;50.008;10.596;2024-03-25T04:22:54;6.10;99.90
11047;DHT22;5576;50.008;10.596;2024-03-25T04:25:21;6.10;99.90
11047;DHT22;5576;50.008;10.596;2024-03-25T04:27:46;6.00;99.90
11047;DHT22;5576;50.008;10.596;2024-03-25T04:30:13;6.10;99.90
11047;DHT22;5576;50.008;10.596;2024-03-25T04:32:40;6.10;99.90
11047;DHT22;5576;50.008;10.596;2024-03-25T04:35:06;6.10;99.90
11047;DHT22;5576;50.008;10.596;2024-03-25T04:37:33;6.20;99.90
11047;DHT22;5576;50.008;10.596;2024-03-25T04:40:00;6.10;99.90
11047;DHT22;5576;50.008;10.596;2024-03-25T04:42:26;6.20;99.90
11047;DHT22;5576;50.008;10.596;2024-03-25T04:44:52;6.20;99.90
11047;DHT22;5576;50.008;10.596;2024-03-25T04:47:18;6.20;99.90
11047;DHT22;5576;50.008;10.596;2024-03-25T04:49:44;6.10;99.90
11047;DHT22;5576;50.008;10.596;2024-03-25T04:52:11;6.10;99.90
11047;DHT22;5576;50.008;10.596;2024-03-25T04:54:39;6.00;99.90
11047;DHT22;5576;50.008;10.596;2024-03-25T04:57:05;6.20;99.90
11047;DHT22;5576;50.008;10.596;2024-03-25T04:59:33;6.10;99.90
11047;DHT22;5576;50.008;10.596;2024-03-25T05:01:59;6.20;99.90
11047;DHT22;5576;50.008;10.596;2024-03-25T05:04:26;6.30;99.90
11047;DHT22;5576;50.008;10.596;2024-03-25T05:06:51;6.20;99.90
11047;DHT22;5576;50.008;10.596;2024-03-25T05:09:17;6.20;99.90
11047;DHT22;5576;50.008;10.596;2024-03-25T05:11:43;6.20;99.90
11047;DHT22;5576;50.008;10.596;2024-03-25T05:14:09;6.10;99.90
11047;DHT22;5576;50.008;10.596;2024-03-25T05:16:35;6.10;99.90
11047;DHT22;5576;50.008;10.596;2024-03-25T05:19:02;6.10;99.90
11047;DHT22;5576;50.008;10.596;2024-03-25T05:21:30;6.20;99.90
11047;DHT22;5576;50.008;10.596;2024-03-25T05:23:56;6.10;99.90
11047;DHT22;5576;50.008;10.596;2024-03-25T05:26:21;6.10;99.90
11047;DHT22;5576;50.008;10.596;2024-03-25T05:28:53;6.10;99.90
11047;DHT22;5576;50.008;10.596;2024-03-25T05:31:18;6.10;99.90
11047;DHT22;5576;50.008;10.596;2024-03-25T05:33:44;6.20;99.90
11047;DHT22;5576;50.008;10.596;2024-03-25T05:36:12;6.30;99.90
11047;DHT22;5576;50.008;10.596;2024-03-25T05:38:38;6.20;99.90
11047;DHT22;5576;50.008;10.596;2024-03-25T05:41:04;6.30;99.90
11047;DHT22;5576;50.008;10.596;2024-03-25T05:43:30;2.10;99.90
11047;DHT22;5576;50.008;10.596;2024-03-25T05:45:56;6.60;99.90
11047;DHT22;5576;50.008;10.596;2024-03-25T05:48:24;6.50;99.90
11047;DHT22;5576;50.008;10.596;2024-03-25T05:51:06;6.80;99.90
11047;DHT22;5576;50.008;10.596;2024-03-25T05:53:33;6.90;99.90
11047;DHT22;5576;50.008;10.596;2024-03-25T05:55:59;7.00;99.90
11047;DHT22;5576;50.008;10.596;2024-03-25T05:58:26;7.00;99.90
11047;DHT22;5576;50.008;10.596;2024-03-25T06:00:53;6.90;99.90
11047;DHT22;5576;50.008;10.596;2024-03-25T06:03:19;6.80;99.90
11047;DHT22;5576;50.008;10.596;2024-03-25T06:05:44;6.70;99.90
11047;DHT22;5576;50.008;10.596;2024-03-25T06:08:10;6.80;99.90
11047;DHT22;5576;50.008;10.596;2024-03-25T06:10:47;6.80;99.90
11047;DHT22;5576;50.008;10.596;2024-03-25T06:13:12;6.30;99.90
11047;DHT22;5576;50.008;10.596;2024-03-25T06:15:38;6.80;99.90
11047;DHT22;5576;50.008;10.596;2024-03-25T06:18:04;6.80;99.90
11047;DHT22;5576;50.008;10.596;2024-03-25T06:20:29;6.90;99.90
11047;DHT22;5576;50.008;10.596;2024-03-25T06:22:55;6.90;99.90
11047;DHT22;5576;50.008;10.596;2024-03-25T06:25:21;6.70;99.90
11047;DHT22;5576;50.008;10.596;2024-03-25T06:27:47;8.40;99.90
11047;DHT22;5576;50.008;10.596;2024-03-25T06:30:13;6.70;99.90
11047;DHT22;5576;50.008;10.596;2024-03-25T06:32:59;6.70;99.90
11047;DHT22;5576;50.008;10.596;2024-03-25T06:35:44;3.10;99.90
11047;DHT22;5576;50.008;10.596;2024-03-25T06:38:11;6.70;99.90
11047;DHT22;5576;50.008;10.596;2024-03-25T06:40:37;6.70;99.90
11047;DHT22;5576;50.008;10.596;2024-03-25T06:43:04;6.70;99.90
11047;DHT22;5576;50.008;10.596;2024-03-25T06:45:29;6.70;99.90
11047;DHT22;5576;50.008;10.596;2024-03-25T06:47:56;6.70;99.90
11047;DHT22;5576;50.008;10.596;2024-03-25T06:50:23;6.60;99.90
11047;DHT22;5576;50.008;10.596;2024-03-25T06:52:49;6.70;99.90
11047;DHT22;5576;50.008;10.596;2024-03-25T06:55:15;6.80;99.90
11047;DHT22;5576;50.008;10.596;2024-03-25T06:57:41;6.80;99.90
11047;DHT22;5576;50.008;10.596;2024-03-25T07:00:07;6.80;99.90
11047;DHT22;5576;50.008;10.596;2024-03-25T07:02:38;3.20;99.90
11047;DHT22;5576;50.008;10.596;2024-03-25T07:07:30;6.70;99.90
11047;DHT22;5576;50.008;10.596;2024-03-25T07:09:57;6.70;99.90
11047;DHT22;5576;50.008;10.596;2024-03-25T07:12:22;6.60;99.90
11047;DHT22;5576;50.008;10.596;2024-03-25T07:14:49;4.50;99.90
11047;DHT22;5576;50.008;10.596;2024-03-25T07:17:15;6.80;99.90
11047;DHT22;5576;50.008;10.596;2024-03-25T07:19:41;2.30;99.90
11047;DHT22;5576;50.008;10.596;2024-03-25T07:22:06;6.70;99.90
11047;DHT22;5576;50.008;10.596;2024-03-25T07:24:32;6.80;99.90
11047;DHT22;5576;50.008;10.596;2024-03-25T07:26:58;6.70;99.90
11047;DHT22;5576;50.008;10.596;2024-03-25T07:29:24;6.80;99.90
11047;DHT22;5576;50.008;10.596;2024-03-25T07:31:50;6.80;99.90
11047;DHT22;5576;50.008;10.596;2024-03-25T07:34:15;6.90;99.90
11047;DHT22;5576;50.008;10.596;2024-03-25T07:36:41;6.50;99.90
11047;DHT22;5576;50.008;10.596;2024-03-25T07:39:07;6.90;99.90
11047;DHT22;5576;50.008;10.596;2024-03-25T07:41:37;6.90;99.90
11047;DHT22;5576;50.008;10.596;2024-03-25T07:44:02;7.00;99.90
11047;DHT22;5576;50.008;10.596;2024-03-25T07:46:30;6.90;99.90
11047;DHT22;5576;50.008;10.596;2024-03-25T07:48:56;7.00;99.90
11047;DHT22;5576;50.008;10.596;2024-03-25T07:51:22;7.00;99.90
11047;DHT22;5576;50.008;10.596;2024-03-25T07:53:48;7.00;99.90
11047;DHT22;5576;50.008;10.596;2024-03-25T07:56:15;6.90;99.90
11047;DHT22;5576;50.008;10.596;2024-03-25T07:58:41;7.00;99.90
11047;DHT22;5576;50.008;10.596;2024-03-25T08:01:07;7.00;99.90
11047;DHT22;5576;50.008;10.596;2024-03-25T08:03:33;7.10;99.90
11047;DHT22;5576;50.008;10.596;2024-03-25T08:05:59;7.10;99.90
11047;DHT22;5576;50.008;10.596;2024-03-25T08:08:25;7.20;99.90
11047;DHT22;5576;50.008;10.596;2024-03-25T08:10:51;7.20;99.90
11047;DHT22;5576;50.008;10.596;2024-03-25T08:13:18;7.30;99.90
11047;DHT22;5576;50.008;10.596;2024-03-25T08:15:45;7.30;99.90
11047;DHT22;5576;50.008;10.596;2024-03-25T08:18:11;7.30;99.90
11047;DHT22;5576;50.008;10.596;2024-03-25T08:20:38;7.30;99.90
11047;DHT22;5576;50.008;10.596;2024-03-25T08:23:04;7.30;99.90
11047;DHT22;5576;50.008;10.596;2024-03-25T08:25:30;7.30;99.90
11047;DHT22;5576;50.008;10.596;2024-03-25T08:27:55;7.30;99.90
11047;DHT22;5576;50.008;10.596;2024-03-25T08:30:21;7.40;99.90
11047;DHT22;5576;50.008;10.596;2024-03-25T08:32:47;7.20;99.90
11047;DHT22;5576;50.008;10.596;2024-03-25T08:35:12;7.20;99.90
11047;DHT22;5576;50.008;10.596;2024-03-25T08:37:38;7.40;99.90
11047;DHT22;5576;50.008;10.596;2024-03-25T08:40:04;7.60;99.90
11047;DHT22;5576;50.008;10.596;2024-03-25T08:42:30;7.50;99.90
11047;DHT22;5576;50.008;10.596;2024-03-25T08:44:58;7.40;99.90
11047;DHT22;5576;50.008;10.596;2024-03-25T08:47:25;7.40;99.90
11047;DHT22;5576;50.008;10.596;2024-03-25T08:49:51;7.50;99.90
11047;DHT22;5576;50.008;10.596;2024-03-25T08:52:16;7.60;99.90
11047;DHT22;5576;50.008;10.596;2024-03-25T08:54:42;7.70;99.90
11047;DHT22;5576;50.008;10.596;2024-03-25T08:57:08;7.60;99.90
11047;DHT22;5576;50.008;10.596;2024-03-25T08:59:34;5.80;99.90
11047;DHT22;5576;50.008;10.596;2024-03-25T09:02:00;7.60;99.90
11047;DHT22;5576;50.008;10.596;2024-03-25T09:04:25;7.60;99.90
11047;DHT22;5576;50.008;10.596;2024-03-25T09:06:53;9.00;99.90
11047;DHT22;5576;50.008;10.596;2024-03-25T09:09:19;7.70;99.90
11047;DHT22;5576;50.008;10.596;2024-03-25T09:12:05;7.50;99.90
11047;DHT22;5576;50.008;10.596;2024-03-25T09:14:32;6.00;99.90
11047;DHT22;5576;50.008;10.596;2024-03-25T09:16:59;4.20;99.90
11047;DHT22;5576;50.008;10.596;2024-03-25T09:19:26;9.70;99.90
11047;DHT22;5576;50.008;10.596;2024-03-25T09:21:51;11.50;99.90
11047;DHT22;5576;50.008;10.596;2024-03-25T09:24:17;7.70;99.90
11047;DHT22;5576;50.008;10.596;2024-03-25T09:26:44;3.40;99.90
11047;DHT22;5576;50.008;10.596;2024-03-25T09:29:12;7.50;99.90
11047;DHT22;5576;50.008;10.596;2024-03-25T09:31:38;7.70;99.90
11047;DHT22;5576;50.008;10.596;2024-03-25T09:34:04;7.70;99.90
11047;DHT22;5576;50.008;10.596;2024-03-25T09:36:30;7.90;99.90
11047;DHT22;5576;50.008;10.596;2024-03-25T09:38:56;7.90;99.90
11047;DHT22;5576;50.008;10.596;2024-03-25T09:41:22;5.50;99.90
11047;DHT22;5576;50.008;10.596;2024-03-25T09:43:48;7.90;99.90
11047;DHT22;5576;50.008;10.596;2024-03-25T09:46:17;8.20;99.90
11047;DHT22;5576;50.008;10.596;2024-03-25T09:48:43;8.20;99.90
11047;DHT22;5576;50.008;10.596;2024-03-25T09:51:10;8.20;99.90
11047;DHT22;5576;50.008;10.596;2024-03-25T09:53:36;8.20;99.90
11047;DHT22;5576;50.008;10.596;2024-03-25T09:56:02;8.50;99.90
11047;DHT22;5576;50.008;10.596;2024-03-25T09:58:29;8.50;99.90
11047;DHT22;5576;50.008;10.596;2024-03-25T10:00:55;8.40;99.90
11047;DHT22;5576;50.008;10.596;2024-03-25T10:03:23;8.50;99.90
11047;DHT22;5576;50.008;10.596;2024-03-25T10:05:50;8.60;99.90
11047;DHT22;5576;50.008;10.596;2024-03-25T10:08:21;8.70;99.90
11047;DHT22;5576;50.008;10.596;2024-03-25T10:10:47;8.60;99.90
11047;DHT22;5576;50.008;10.596;2024-03-25T10:13:12;8.70;99.90
11047;DHT22;5576;50.008;10.596;2024-03-25T10:15:38;8.70;99.90
11047;DHT22;5576;50.008;10.596;2024-03-25T10:18:04;8.60;99.90
11047;DHT22;5576;50.008;10.596;2024-03-25T10:20:30;8.80;99.90
11047;DHT22;5576;50.008;10.596;2024-03-25T10:22:56;5.30;99.90
11047;DHT22;5576;50.008;10.596;2024-03-25T10:25:28;9.00;99.90
11047;DHT22;5576;50.008;10.596;2024-03-25T10:30:22;9.00;99.90
11047;DHT22;5576;50.008;10.596;2024-03-25T10:33:06;8.90;99.90
11047;DHT22;5576;50.008;10.596;2024-03-25T10:35:36;8.80;99.90
11047;DHT22;5576;50.008;10.596;2024-03-25T10:38:04;8.90;99.90
11047;DHT22;5576;50.008;10.596;2024-03-25T10:40:31;9.10;99.90
11047;DHT22;5576;50.008;10.596;2024-03-25T10:43:02;9.30;99.90
11047;DHT22;5576;50.008;10.596;2024-03-25T10:45:30;9.30;99.90
11047;DHT22;5576;50.008;10.596;2024-03-25T10:47:58;14.00;99.90
11047;DHT22;5576;50.008;10.596;2024-03-25T10:50:28;9.60;99.90
11047;DHT22;5576;50.008;10.596;2024-03-25T10:52:54;7.10;99.90
11047;DHT22;5576;50.008;10.596;2024-03-25T10:55:21;9.90;99.90
11047;DHT22;5576;50.008;10.596;2024-03-25T10:57:48;10.20;99.90
11047;DHT22;5576;50.008;10.596;2024-03-25T11:00:15;10.40;99.90
11047;DHT22;5576;50.008;10.596;2024-03-25T11:02:43;10.50;99.90
11047;DHT22;5576;50.008;10.596;2024-03-25T11:05:09;13.30;99.90
11047;DHT22;5576;50.008;10.596;2024-03-25T11:07:36;8.10;99.90
11047;DHT22;5576;50.008;10.596;2024-03-25T11:10:05;13.00;99.90
11047;DHT22;5576;50.008;10.596;2024-03-25T11:12:34;10.20;99.90
11047;DHT22;5576;50.008;10.596;2024-03-25T11:15:01;10.30;99.90
11047;DHT22;5576;50.008;10.596;2024-03-25T11:17:27;10.50;99.90
11047;DHT22;5576;50.008;10.596;2024-03-25T11:19:53;10.60;99.90
11047;DHT22;5576;50.008;10.596;2024-03-25T11:22:24;10.70;99.90
11047;DHT22;5576;50.008;10.596;2024-03-25T11:24:50;10.90;99.90
11047;DHT22;5576;50.008;10.596;2024-03-25T11:27:22;11.20;99.90
11047;DHT22;5576;50.008;10.596;2024-03-25T11:29:48;11.40;99.90
11047;DHT22;5576;50.008;10.596;2024-03-25T11:32:15;11.50;99.90
11047;DHT22;5576;50.008;10.596;2024-03-25T11:34:50;11.50;99.90
11047;DHT22;5576;50.008;10.596;2024-03-25T11:37:16;11.60;99.90
11047;DHT22;5576;50.008;10.596;2024-03-25T11:39:42;11.60;99.90
11047;DHT22;5576;50.008;10.596;2024-03-25T11:42:08;11.40;99.90
11047;DHT22;5576;50.008;10.596;2024-03-25T11:44:37;11.20;99.90
11047;DHT22;5576;50.008;10.596;2024-03-25T11:47:04;11.40;99.90
11047;DHT22;5576;50.008;10.596;2024-03-25T11:49:31;11.40;99.90
11047;DHT22;5576;50.008;10.596;2024-03-25T11:51:59;11.50;99.90
11047;DHT22;5576;50.008;10.596;2024-03-25T11:54:27;11.60;99.90
11047;DHT22;5576;50.008;10.596;2024-03-25T11:56:54;11.50;99.90
11047;DHT22;5576;50.008;10.596;2024-03-25T11:59:20;11.50;99.90
11047;DHT22;5576;50.008;10.596;2024-03-25T12:01:46;10.60;99.90
11047;DHT22;5576;50.008;10.596;2024-03-25T12:04:17;11.30;99.90
11047;DHT22;5576;50.008;10.596;2024-03-25T12:06:44;11.50;99.90
11047;DHT22;5576;50.008;10.596;2024-03-25T12:09:11;13.80;99.90
11047;DHT22;5576;50.008;10.596;2024-03-25T12:11:57;10.60;99.90
11047;DHT22;5576;50.008;10.596;2024-03-25T12:14:23;11.50;99.90
11047;DHT22;5576;50.008;10.596;2024-03-25T12:16:53;11.60;99.90
11047;DHT22;5576;50.008;10.596;2024-03-25T12:19:20;11.70;99.90
11047;DHT22;5576;50.008;10.596;2024-03-25T12:21:47;11.80;99.90
11047;DHT22;5576;50.008;10.596;2024-03-25T12:24:13;11.80;99.90
11047;DHT22;5576;50.008;10.596;2024-03-25T12:26:39;11.90;99.90
11047;DHT22;5576;50.008;10.596;2024-03-25T12:29:06;11.90;99.90
11047;DHT22;5576;50.008;10.596;2024-03-25T12:31:31;11.90;99.90
11047;DHT22;5576;50.008;10.596;2024-03-25T12:33:57;11.00;99.90
11047;DHT22;5576;50.008;10.596;2024-03-25T12:36:23;12.00;99.90
11047;DHT22;5576;50.008;10.596;2024-03-25T12:38:56;12.00;99.90
11047;DHT22;5576;50.008;10.596;2024-03-25T12:41:23;12.00;99.90
11047;DHT22;5576;50.008;10.596;2024-03-25T12:43:50;12.10;99.90
11047;DHT22;5576;50.008;10.596;2024-03-25T12:46:16;12.20;99.90
11047;DHT22;5576;50.008;10.596;2024-03-25T12:48:43;12.30;99.90
11047;DHT22;5576;50.008;10.596;2024-03-25T12:51:13;12.10;99.90
11047;DHT22;5576;50.008;10.596;2024-03-25T12:53:39;12.10;99.90
11047;DHT22;5576;50.008;10.596;2024-03-25T12:56:05;12.20;99.90
11047;DHT22;5576;50.008;10.596;2024-03-25T12:58:31;12.30;99.90
11047;DHT22;5576;50.008;10.596;2024-03-25T13:00:57;16.10;99.90
11047;DHT22;5576;50.008;10.596;2024-03-25T13:03:24;12.40;99.90
11047;DHT22;5576;50.008;10.596;2024-03-25T13:05:50;12.60;99.90
11047;DHT22;5576;50.008;10.596;2024-03-25T13:08:15;10.00;99.90
11047;DHT22;5576;50.008;10.596;2024-03-25T13:10:43;12.80;99.90
11047;DHT22;5576;50.008;10.596;2024-03-25T13:13:09;12.70;99.90
11047;DHT22;5576;50.008;10.596;2024-03-25T13:15:35;16.30;99.90
11047;DHT22;5576;50.008;10.596;2024-03-25T13:18:01;12.60;99.90
11047;DHT22;5576;50.008;10.596;2024-03-25T13:20:26;12.60;99.90
11047;DHT22;5576;50.008;10.596;2024-03-25T13:22:54;12.70;99.90
11047;DHT22;5576;50.008;10.596;2024-03-25T13:25:22;12.60;99.90
11047;DHT22;5576;50.008;10.596;2024-03-25T13:27:48;11.10;99.90
11047;DHT22;5576;50.008;10.596;2024-03-25T13:30:14;14.70;99.90
11047;DHT22;5576;50.008;10.596;2024-03-25T13:32:40;13.00;99.90
11047;DHT22;5576;50.008;10.596;2024-03-25T13:35:06;13.00;99.90
11047;DHT22;5576;50.008;10.596;2024-03-25T13:37:32;13.00;99.90
11047;DHT22;5576;50.008;10.596;2024-03-25T13:39:58;13.00;99.90
11047;DHT22;5576;50.008;10.596;2024-03-25T13:42:23;12.90;99.90
11047;DHT22;5576;50.008;10.596;2024-03-25T13:44:49;13.30;99.90
11047;DHT22;5576;50.008;10.596;2024-03-25T13:47:15;13.50;99.90
11047;DHT22;5576;50.008;10.596;2024-03-25T13:49:41;13.50;99.90
11047;DHT22;5576;50.008;10.596;2024-03-25T13:52:06;13.60;99.90
11047;DHT22;5576;50.008;10.596;2024-03-25T13:54:32;13.60;99.90
11047;DHT22;5576;50.008;10.596;2024-03-25T13:56:58;13.60;99.90
11047;DHT22;5576;50.008;10.596;2024-03-25T13:59:24;13.70;99.90
11047;DHT22;5576;50.008;10.596;2024-03-25T14:01:50;13.70;99.90
11047;DHT22;5576;50.008;10.596;2024-03-25T14:04:17;13.70;99.90
11047;DHT22;5576;50.008;10.596;2024-03-25T14:06:43;13.60;99.90
11047;DHT22;5576;50.008;10.596;2024-03-25T14:09:23;13.50;99.90
11047;DHT22;5576;50.008;10.596;2024-03-25T14:11:49;13.40;99.90
11047;DHT22;5576;50.008;10.596;2024-03-25T14:14:15;13.20;99.90
11047;DHT22;5576;50.008;10.596;2024-03-25T14:16:41;15.10;99.90
11047;DHT22;5576;50.008;10.596;2024-03-25T14:19:07;13.40;99.90
11047;DHT22;5576;50.008;10.596;2024-03-25T14:21:33;13.40;99.90
11047;DHT22;5576;50.008;10.596;2024-03-25T14:23:58;13.30;99.90
11047;DHT22;5576;50.008;10.596;2024-03-25T14:26:24;13.40;99.90
11047;DHT22;5576;50.008;10.596;2024-03-25T14:28:50;13.50;99.90
11047;DHT22;5576;50.008;10.596;2024-03-25T14:31:16;13.50;99.90
11047;DHT22;5576;50.008;10.596;2024-03-25T14:33:41;13.40;99.90
11047;DHT22;5576;50.008;10.596;2024-03-25T14:36:07;13.30;99.90
11047;DHT22;5576;50.008;10.596;2024-03-25T14:38:33;13.30;99.90
11047;DHT22;5576;50.008;10.596;2024-03-25T14:41:00;11.10;99.90
11047;DHT22;5576;50.008;10.596;2024-03-25T14:43:25;13.30;99.90
11047;DHT22;5576;50.008;10.596;2024-03-25T14:45:51;10.50;99.90
11047;DHT22;5576;50.008;10.596;2024-03-25T14:48:17;13.50;99.90
11047;DHT22;5576;50.008;10.596;2024-03-25T14:50:43;13.40;99.90
11047;DHT22;5576;50.008;10.596;2024-03-25T14:53:08;13.50;99.90
11047;DHT22;5576;50.008;10.596;2024-03-25T14:55:34;13.80;99.90
11047;DHT22;5576;50.008;10.596;2024-03-25T14:58:00;14.00;99.90
11047;DHT22;5576;50.008;10.596;2024-03-25T15:00:25;14.20;99.90
11047;DHT22;5576;50.008;10.596;2024-03-25T15:02:51;14.30;99.90
11047;DHT22;5576;50.008;10.596;2024-03-25T15:05:17;14.20;99.90
11047;DHT22;5576;50.008;10.596;2024-03-25T15:07:44;14.10;99.90
11047;DHT22;5576;50.008;10.596;2024-03-25T15:10:10;14.00;99.90
11047;DHT22;5576;50.008;10.596;2024-03-25T15:12:37;14.00;99.90
11047;DHT22;5576;50.008;10.596;2024-03-25T15:15:04;14.00;99.90
11047;DHT22;5576;50.008;10.596;2024-03-25T15:17:32;14.00;99.90
11047;DHT22;5576;50.008;10.596;2024-03-25T15:19:58;14.10;99.90
11047;DHT22;5576;50.008;10.596;2024-03-25T15:22:24;14.20;99.90
11047;DHT22;5576;50.008;10.596;2024-03-25T15:24:50;14.30;99.90
11047;DHT22;5576;50.008;10.596;2024-03-25T15:27:16;14.40;99.90
11047;DHT22;5576;50.008;10.596;2024-03-25T15:29:42;14.20;99.90
11047;DHT22;5576;50.008;10.596;2024-03-25T15:32:08;14.00;99.90
11047;DHT22;5576;50.008;10.596;2024-03-25T15:34:33;13.80;99.90
11047;DHT22;5576;50.008;10.596;2024-03-25T15:36:59;13.80;99.90
11047;DHT22;5576;50.008;10.596;2024-03-25T15:39:25;13.20;99.90
11047;DHT22;5576;50.008;10.596;2024-03-25T15:41:52;14.00;99.90
11047;DHT22;5576;50.008;10.596;2024-03-25T15:44:17;13.90;99.90
11047;DHT22;5576;50.008;10.596;2024-03-25T15:46:43;15.30;99.90
11047;DHT22;5576;50.008;10.596;2024-03-25T15:49:09;13.60;99.90
11047;DHT22;5576;50.008;10.596;2024-03-25T15:51:35;16.90;99.90